createdAt,value
2019-02-15T00:01:53.196Z,7.30
2019-02-15T00:06:46.056Z,9.00
2019-02-15T00:11:39.020Z,6.30
2019-02-15T00:16:31.883Z,8.93
2019-02-15T00:21:30.538Z,6.77
2019-02-15T00:26:23.401Z,9.10
2019-02-15T00:31:19.167Z,8.40
2019-02-15T00:36:12.022Z,7.50
2019-02-15T00:41:04.868Z,7.23
2019-02-15T00:46:09.939Z,7.07
2019-02-15T00:51:10.965Z,6.87
2019-02-15T00:56:23.422Z,7.30
2019-02-15T01:01:33.431Z,7.60
2019-02-15T01:07:04.451Z,9.80
2019-02-15T01:12:04.106Z,6.60
2019-02-15T01:16:57.262Z,6.87
2019-02-15T01:21:50.246Z,6.83
2019-02-15T01:26:49.382Z,6.30
2019-02-15T01:31:56.113Z,7.10
2019-02-15T01:36:57.007Z,8.60
2019-02-15T01:42:09.441Z,8.63
2019-02-15T01:47:09.357Z,7.03
2019-02-15T01:52:02.346Z,6.87
2019-02-15T01:56:55.333Z,8.33
2019-02-15T02:01:48.327Z,10.17
2019-02-15T02:06:41.145Z,7.17
2019-02-15T02:11:33.999Z,7.50
2019-02-15T02:16:26.844Z,7.93
2019-02-15T02:21:19.720Z,8.93
2019-02-15T02:26:12.602Z,10.03
2019-02-15T02:31:05.445Z,8.70
2019-02-15T02:35:58.326Z,7.43
2019-02-15T02:40:51.231Z,9.43
2019-02-15T02:45:44.068Z,6.70
2019-02-15T02:50:36.920Z,6.43
2019-02-15T02:55:29.791Z,6.30
2019-02-15T03:00:22.694Z,8.13
2019-02-15T03:05:15.656Z,8.53
2019-02-15T03:10:08.754Z,6.47
2019-02-15T03:15:01.599Z,7.17
2019-02-15T03:19:54.466Z,6.43
2019-02-15T03:24:48.458Z,8.57
2019-02-15T03:29:41.360Z,11.03
2019-02-15T03:34:36.279Z,7.33
2019-02-15T03:39:54.439Z,8.73
2019-02-15T03:44:47.332Z,7.37
2019-02-15T03:49:40.202Z,8.33
2019-02-15T03:54:33.069Z,7.73
2019-02-15T03:59:25.903Z,8.10
2019-02-15T04:04:18.883Z,8.27
2019-02-15T04:09:11.729Z,8.27
2019-02-15T04:14:04.582Z,9.77
2019-02-15T04:18:57.431Z,8.10
2019-02-15T04:23:50.310Z,8.03
2019-02-15T04:28:43.163Z,8.43
2019-02-15T04:33:36.059Z,9.43
2019-02-15T04:38:28.954Z,10.50
2019-02-15T04:43:21.763Z,7.60
2019-02-15T04:48:14.625Z,7.33
2019-02-15T04:53:07.488Z,4.70
2019-02-15T04:58:00.358Z,8.57
2019-02-15T05:02:53.177Z,6.07
2019-02-15T05:07:46.039Z,6.67
2019-02-15T05:12:38.893Z,5.67
2019-02-15T05:17:31.773Z,6.80
2019-02-15T05:22:24.663Z,11.17
2019-02-15T05:27:17.498Z,8.47
2019-02-15T05:32:10.356Z,6.30
2019-02-15T05:37:03.430Z,7.43
2019-02-15T05:41:56.296Z,7.13
2019-02-15T05:46:49.159Z,8.93
2019-02-15T05:51:42.045Z,7.90
2019-02-15T05:56:34.901Z,8.33
2019-02-15T06:01:28.542Z,8.43
2019-02-15T06:06:21.410Z,7.70
2019-02-15T06:11:14.301Z,7.23
2019-02-15T06:16:09.118Z,8.70
2019-02-15T06:21:03.672Z,7.70
2019-02-15T06:25:56.534Z,7.00
2019-02-15T06:30:49.368Z,7.73
2019-02-15T06:35:42.274Z,8.50
2019-02-15T06:40:35.207Z,8.10
2019-02-15T06:45:28.071Z,7.53
2019-02-15T06:50:20.939Z,8.50
2019-02-15T06:55:13.829Z,7.77
2019-02-15T07:00:26.818Z,7.03
2019-02-15T07:05:25.590Z,9.17
2019-02-15T07:10:18.444Z,6.63
2019-02-15T07:15:11.286Z,6.83
2019-02-15T07:20:05.944Z,8.80
2019-02-15T07:24:58.884Z,10.93
2019-02-15T07:29:51.733Z,7.50
2019-02-15T07:34:44.633Z,8.40
2019-02-15T07:39:37.655Z,10.83
2019-02-15T07:44:30.606Z,7.87
2019-02-15T07:49:26.835Z,8.50
2019-02-15T07:54:18.244Z,5.90
2019-02-15T07:59:11.151Z,10.80
2019-02-15T08:04:04.204Z,7.80
2019-02-15T08:08:57.241Z,7.33
2019-02-15T08:13:50.093Z,6.70
2019-02-15T08:18:42.940Z,7.27
2019-02-15T08:23:35.792Z,18.13
2019-02-15T08:28:28.695Z,9.23
2019-02-15T08:33:21.634Z,8.70
2019-02-15T08:38:14.491Z,7.37
2019-02-15T08:43:07.347Z,8.33
2019-02-15T08:48:00.216Z,10.00
2019-02-15T08:53:14.448Z,8.30
2019-02-15T08:58:07.298Z,11.40
2019-02-15T09:03:00.188Z,7.53
2019-02-15T09:07:53.147Z,7.37
2019-02-15T09:12:46.026Z,10.93
2019-02-15T09:17:38.934Z,8.70
2019-02-15T09:22:31.827Z,9.07
2019-02-15T09:27:41.809Z,7.67
2019-02-15T09:32:34.723Z,8.10
2019-02-15T09:37:27.582Z,7.60
2019-02-15T09:42:20.465Z,9.37
2019-02-15T09:47:13.356Z,9.60
2019-02-15T09:52:06.330Z,8.13
2019-02-15T09:56:59.240Z,9.33
2019-02-15T10:01:52.156Z,8.53
2019-02-15T10:06:45.023Z,8.90
2019-02-15T10:11:37.904Z,8.73
2019-02-15T10:16:31.981Z,9.33
2019-02-15T10:21:24.853Z,9.67
2019-02-15T10:26:17.820Z,8.83
2019-02-15T10:31:10.919Z,9.67
2019-02-15T10:36:03.890Z,8.17
2019-02-15T10:40:56.752Z,8.17
2019-02-15T10:45:49.625Z,8.73
2019-02-15T10:50:42.465Z,9.63
2019-02-15T10:55:38.018Z,8.57
2019-02-15T11:00:30.912Z,8.53
2019-02-15T11:05:23.979Z,9.23
2019-02-15T11:10:17.101Z,8.10
2019-02-15T11:15:11.681Z,8.93
2019-02-15T11:20:05.960Z,8.53
2019-02-15T11:25:00.871Z,7.47
2019-02-15T11:29:53.768Z,8.27
2019-02-15T11:34:47.026Z,9.63
2019-02-15T11:39:40.278Z,7.10
2019-02-15T11:44:33.298Z,6.30
2019-02-15T11:49:26.272Z,6.17
2019-02-15T11:54:23.609Z,9.33
2019-02-15T11:59:13.958Z,8.87
2019-02-15T12:04:06.961Z,6.97
2019-02-15T12:09:00.053Z,8.07
2019-02-15T12:13:52.987Z,7.40
2019-02-15T12:18:45.836Z,4.73
2019-02-15T12:23:38.734Z,4.03
2019-02-15T12:28:31.686Z,6.80
2019-02-15T12:33:24.549Z,5.03
2019-02-15T12:38:17.394Z,5.40
2019-02-15T12:43:10.295Z,4.77
2019-02-15T12:48:03.322Z,4.57
2019-02-15T12:52:56.206Z,3.67
2019-02-15T12:57:49.066Z,4.67
2019-02-15T13:02:41.962Z,3.97
2019-02-15T13:07:34.905Z,3.40
2019-02-15T13:12:27.982Z,2.90
2019-02-15T13:17:24.653Z,3.80
2019-02-15T13:22:16.743Z,4.27
2019-02-15T13:27:09.609Z,3.70
2019-02-15T13:32:02.500Z,4.87
2019-02-15T13:36:55.367Z,3.97
2019-02-15T13:41:48.233Z,3.07
2019-02-15T13:46:41.142Z,4.37
2019-02-15T13:51:34.012Z,2.93
2019-02-15T13:56:26.879Z,5.37
2019-02-15T14:01:20.158Z,2.57
2019-02-15T14:06:13.096Z,3.47
2019-02-15T14:11:06.044Z,4.30
2019-02-15T14:15:59.051Z,3.80
2019-02-15T14:20:52.113Z,4.57
2019-02-15T14:25:45.111Z,1.83
2019-02-15T14:30:38.034Z,3.60
2019-02-15T14:35:30.917Z,2.47
2019-02-15T14:40:23.755Z,2.97
2019-02-15T14:45:16.639Z,2.20
2019-02-15T14:50:09.749Z,5.27
2019-02-15T14:55:05.792Z,4.13
2019-02-15T14:59:58.754Z,2.47
2019-02-15T15:04:51.640Z,3.00
2019-02-15T15:09:44.518Z,1.97
2019-02-15T15:14:37.489Z,2.37
2019-02-15T15:19:30.351Z,3.13
2019-02-15T15:24:23.214Z,4.03
2019-02-15T15:29:16.112Z,4.50
2019-02-15T15:34:09.189Z,4.33
2019-02-15T15:39:02.406Z,3.27
2019-02-15T15:43:55.309Z,3.33
2019-02-15T15:48:48.199Z,3.47
2019-02-15T15:53:41.050Z,3.03
2019-02-15T15:58:33.967Z,2.43
2019-02-15T16:03:26.906Z,3.03
2019-02-15T16:08:20.152Z,4.03
2019-02-15T16:13:13.369Z,2.90
2019-02-15T16:18:06.246Z,3.97
2019-02-15T16:23:00.356Z,2.77
2019-02-15T16:27:53.221Z,3.73
2019-02-15T16:32:46.093Z,3.57
2019-02-15T16:37:39.132Z,3.37
2019-02-15T16:42:32.047Z,3.87
2019-02-15T16:47:24.885Z,4.67
2019-02-15T16:52:17.952Z,3.97
2019-02-15T16:57:10.818Z,5.80
2019-02-15T17:02:03.783Z,2.73
2019-02-15T17:06:56.618Z,3.77
2019-02-15T17:11:49.494Z,4.83
2019-02-15T17:16:42.359Z,4.90
2019-02-15T17:21:35.250Z,4.20
2019-02-15T17:26:28.118Z,4.10
2019-02-15T17:31:25.801Z,3.97
2019-02-15T17:36:28.108Z,4.40
2019-02-15T17:41:22.191Z,5.40
2019-02-15T17:46:15.328Z,3.80
2019-02-15T17:51:08.400Z,3.87
2019-02-15T17:56:01.281Z,4.10
2019-02-15T18:00:54.186Z,4.00
2019-02-15T18:05:52.067Z,5.67
2019-02-15T18:10:44.953Z,4.10
2019-02-15T18:15:37.831Z,5.03
2019-02-15T18:20:30.640Z,7.37
2019-02-15T18:25:23.658Z,6.23
2019-02-15T18:30:16.563Z,5.30
2019-02-15T18:35:09.433Z,4.73
2019-02-15T18:40:02.422Z,5.40
2019-02-15T18:44:55.335Z,5.63
2019-02-15T18:49:48.228Z,9.13
2019-02-15T18:54:41.099Z,4.23
2019-02-15T18:59:33.986Z,3.97
2019-02-15T19:04:26.849Z,6.10
2019-02-15T19:09:19.770Z,4.87
2019-02-15T19:14:12.667Z,6.00
2019-02-15T19:19:05.597Z,6.50
2019-02-15T19:23:58.434Z,6.00
2019-02-15T19:28:52.415Z,6.17
2019-02-15T19:33:45.287Z,8.03
2019-02-15T19:38:38.445Z,7.27
2019-02-15T19:43:36.174Z,6.63
2019-02-15T19:48:29.063Z,5.13
2019-02-15T19:53:21.938Z,7.07
2019-02-15T19:58:14.816Z,7.40
2019-02-15T20:03:07.696Z,5.23
2019-02-15T20:08:00.589Z,4.80
2019-02-15T20:12:53.591Z,6.93
2019-02-15T20:17:46.479Z,5.90
2019-02-15T20:22:39.888Z,5.03
2019-02-15T20:27:33.033Z,5.80
2019-02-15T20:32:25.940Z,5.20
2019-02-15T20:37:18.916Z,7.53
2019-02-15T20:42:11.817Z,8.33
2019-02-15T20:47:07.503Z,6.80
2019-02-15T20:52:01.937Z,5.90
2019-02-15T20:56:55.072Z,7.23
2019-02-15T21:01:48.053Z,4.73
2019-02-15T21:06:41.850Z,6.60
2019-02-15T21:11:36.719Z,6.87
2019-02-15T21:16:36.627Z,7.03
2019-02-15T21:21:29.648Z,6.83
2019-02-15T21:26:22.658Z,6.47
2019-02-15T21:31:17.757Z,8.17
2019-02-15T21:36:14.302Z,7.47
2019-02-15T21:41:08.388Z,9.40
2019-02-15T21:46:01.360Z,6.13
2019-02-15T21:50:54.224Z,7.97
2019-02-15T21:55:49.234Z,8.40
2019-02-15T22:00:42.129Z,7.23
2019-02-15T22:05:35.011Z,9.53
2019-02-15T22:10:28.394Z,6.50
2019-02-15T22:15:24.866Z,7.87
2019-02-15T22:20:26.415Z,9.17
2019-02-15T22:25:15.954Z,5.40
2019-02-15T22:30:11.530Z,9.00
2019-02-15T22:35:05.056Z,10.13
2019-02-15T22:40:49.407Z,7.70
2019-02-15T22:45:44.322Z,6.60
2019-02-15T22:50:38.282Z,6.83
2019-02-15T22:55:31.142Z,7.57
2019-02-15T23:00:39.205Z,13.53
2019-02-15T23:05:44.281Z,9.20
2019-02-15T23:10:39.574Z,6.77
2019-02-15T23:15:37.667Z,7.33
2019-02-15T23:20:44.828Z,11.13
2019-02-15T23:25:39.358Z,8.33
2019-02-15T23:30:40.454Z,7.77
2019-02-15T23:35:34.431Z,8.50
2019-02-15T23:40:31.805Z,7.43
2019-02-15T23:45:28.201Z,7.60
2019-02-15T23:50:22.427Z,6.20
2019-02-15T23:55:15.404Z,10.43
